Susan Ann — WCY5700 — position and weather

sailwx.info

Track history (hours):
 
Tides and Currents Weather Stations Pressure Air Temp Water Temp Dewpoint Dewpoint Depression Visibility Wind Speed Wind Dir Waves Ship Positions

Susan Ann

Owner: CROSS SOUND FERRY SERVICES INC, NEW LONDON, CT. More information available from US FCC via Universal Licensing System and Coast Guard Vessel Documentation Center.

Last reported at 2015-Jul-04 21:33 UTC. Time now 2015-Jul-05 00:11 UTC.
Position N 41°13' W 072°10'.

Length 72 m; draft 4 m.

Type: Passenger vessel. MMSI: 367354350.

Date/timePositionNaut miles runAvg speedWind from/ knotsBaromVisibWave heightAir tempDewpointWater temp
2015-Jul-04 21:33N 41°13' W 072°10'5 5.0
2015-Jul-04 20:32N 41°09' W 072°14'14 0.8
2015-Jul-04 02:30N 41°21' W 072°06'9 9.8
2015-Jul-04 01:33N 41°13' W 072°10'5 4.7
2015-Jul-04 00:34N 41°09' W 072°14'8 8.1
2015-Jul-03 23:33N 41°16' W 072°08'6 5.9
2015-Jul-03 22:33N 41°21' W 072°06'9 9.3
2015-Jul-03 21:33N 41°13' W 072°11'5 4.7
2015-Jul-03 20:34N 41°09' W 072°14'1010.2
2015-Jul-03 19:33N 41°17' W 072°05'4 4.3
2015-Jul-03 18:33N 41°21' W 072°06'1110.6
2015-Jul-03 17:33N 41°12' W 072°12'3 3.3
2015-Jul-03 16:34N 41°09' W 072°14'9 9.5
2015-Jul-03 15:34N 41°17' W 072°06'5 4.8
2015-Jul-03 14:34N 41°21' W 072°06'10 9.7
2015-Jul-03 13:34N 41°12' W 072°11'4 4.2
2015-Jul-03 12:33N 41°09' W 072°14'9 9.0
2015-Jul-03 11:34N 41°16' W 072°07'5 5.2
2015-Jul-03 10:33N 41°21' W 072°06'0 0.0
2015-Jul-03 02:24N 41°21' W 072°06'8 9.0
2015-Jul-03 01:34N 41°14' W 072°09'6 6.3
2015-Jul-03 00:33N 41°09' W 072°14'8 8.5
2015-Jul-02 23:34N 41°16' W 072°08'6 5.5
2015-Jul-02 22:33N 41°21' W 072°06'9 8.9
2015-Jul-02 21:34N 41°13' W 072°10'5 5.1
2015-Jul-02 20:33N 41°09' W 072°14'8 8.5
2015-Jul-02 19:33N 41°16' W 072°07'6 5.7
2015-Jul-02 18:33N 41°21' W 072°06'1010.1
2015-Jul-02 17:33N 41°12' W 072°11'4 3.8
2015-Jul-02 16:33N 41°09' W 072°14'9 9.5
2015-Jul-02 15:33N 41°17' W 072°07'5 4.7
2015-Jul-02 14:33N 41°21' W 072°06'9 9.3
2015-Jul-02 13:33N 41°13' W 072°11'5 4.5
2015-Jul-02 12:33N 41°09' W 072°14'9 8.6
2015-Jul-02 11:34N 41°16' W 072°07'5 5.5
2015-Jul-02 10:34N 41°21' W 072°06'0 0.0
2015-Jul-02 00:25N 41°21' W 072°06'8 9.8
2015-Jul-01 23:33N 41°14' W 072°10'6 5.6
2015-Jul-01 22:34N 41°09' W 072°14'8 8.1
2015-Jul-01 21:33N 41°16' W 072°08'6 6.0
2015-Jul-01 20:34N 41°21' W 072°06'9 8.9
2015-Jul-01 19:34N 41°13' W 072°10'5 5.2
2015-Jul-01 18:33N 41°09' W 072°14'9 9.4
2015-Jul-01 17:33N 41°17' W 072°07'5 4.8
2015-Jul-01 16:33N 41°21' W 072°06'9 8.5
2015-Jul-01 15:34N 41°13' W 072°10'5 5.4
2015-Jul-01 14:33N 41°09' W 072°14'1010.3
2015-Jul-01 13:33N 41°17' W 072°06'4 4.1
2015-Jul-01 12:33N 41°21' W 072°06'9 9.1
2015-Jul-01 11:33N 41°13' W 072°10'5 4.8
2015-Jul-01 10:32N 41°09' W 072°14'0 0.0
2015-Jul-01 00:32N 41°09' W 072°14'9 8.8
2015-Jun-30 23:33N 41°16' W 072°07'6 5.6
2015-Jun-30 22:33N 41°21' W 072°06'9 8.8
2015-Jun-30 21:33N 41°13' W 072°10'5 5.1
2015-Jun-30 20:33N 41°09' W 072°14'1010.2
2015-Jun-30 19:33N 41°17' W 072°06'4 4.2
2015-Jun-30 18:34N 41°21' W 072°06'9 8.7
2015-Jun-30 17:33N 41°13' W 072°10'5 5.4
2015-Jun-30 16:33N 41°09' W 072°14'1310.7
2015-Jun-30 15:21N 41°20' W 072°05'1 1.8
2015-Jun-30 14:33N 41°21' W 072°06'9 9.2
2015-Jun-30 13:33N 41°13' W 072°11'5 4.7
2015-Jun-30 12:33N 41°09' W 072°14'9 8.5
2015-Jun-30 11:34N 41°16' W 072°07'6 5.7
2015-Jun-30 10:34N 41°21' W 072°06'0 0.0
2015-Jun-30 00:26N 41°21' W 072°06'9 9.9
2015-Jun-29 23:33N 41°13' W 072°10'5 5.4
2015-Jun-29 22:33N 41°09' W 072°14'8 7.8
2015-Jun-29 21:33N 41°15' W 072°08'6 6.2
2015-Jun-29 20:33N 41°21' W 072°06'9 8.8
2015-Jun-29 19:33N 41°13' W 072°10'5 5.2
2015-Jun-29 18:34N 41°09' W 072°14'9 8.7
2015-Jun-29 17:33N 41°16' W 072°07'5 5.4
2015-Jun-29 16:33N 41°21' W 072°06'8 7.8
2015-Jun-29 15:33N 41°14' W 072°09'6 6.2
2015-Jun-29 14:33N 41°09' W 072°14'8 8.3
2015-Jun-29 13:33N 41°16' W 072°08'6 5.7
2015-Jun-29 12:33N 41°21' W 072°06'8 8.4
2015-Jun-29 11:34N 41°14' W 072°10'5 5.5
2015-Jun-29 10:33N 41°09' W 072°14'0 0.0
2015-Jun-29 02:09N 41°09' W 072°14'4 7.2
2015-Jun-29 01:33N 41°13' W 072°12'10 9.6
2015-Jun-29 00:33N 41°21' W 072°06'8 8.3
2015-Jun-28 23:33N 41°14' W 072°10'6 5.7
2015-Jun-28 22:33N 41°09' W 072°14'7 7.4
2015-Jun-28 21:34N 41°15' W 072°08'7 6.6
2015-Jun-28 20:33N 41°21' W 072°06'9 9.4
2015-Jun-28 19:33N 41°13' W 072°10'5 4.7
2015-Jun-28 18:33N 41°09' W 072°14'8 7.9
2015-Jun-28 17:33N 41°15' W 072°08'6 6.2
2015-Jun-28 16:33N 41°21' W 072°06'9 8.8
2015-Jun-28 15:34N 41°13' W 072°10'5 5.3
2015-Jun-28 14:33N 41°09' W 072°14'9 9.1
2015-Jun-28 13:34N 41°16' W 072°07'5 5.2
2015-Jun-28 12:33N 41°21' W 072°06'1010.4
2015-Jun-28 11:33N 41°12' W 072°12'3 3.5
2015-Jun-28 10:33N 41°09' W 072°14'1 0.1
2015-Jun-28 01:33N 41°09' W 072°13'1 0.8
2015-Jun-28 00:33N 41°09' W 072°14'9 9.2
2015-Jun-27 23:34N 41°16' W 072°07'5 5.0
2015-Jun-27 22:34N 41°21' W 072°06'9 9.2
2015-Jun-27 21:34N 41°13' W 072°11'5 4.7
2015-Jun-27 20:33N 41°09' W 072°14'1010.0
2015-Jun-27 19:34N 41°17' W 072°06'4 4.3
2015-Jun-27 18:33N 41°21' W 072°06'9 9.5
2015-Jun-27 17:33N 41°13' W 072°11'4 4.4
2015-Jun-27 16:33N 41°09' W 072°14'1010.5
2015-Jun-27 15:33N 41°17' W 072°05'4 4.1
2015-Jun-27 14:33N 41°21' W 072°06'9 9.0
2015-Jun-27 13:33N 41°13' W 072°10'5 4.9
2015-Jun-27 12:33N 41°09' W 072°14'9 8.7
2015-Jun-27 11:34N 41°16' W 072°07'5 5.4
2015-Jun-27 10:33N 41°21' W 072°06'0 0.0
2015-Jun-27 02:15N 41°21' W 072°06'6 9.3
2015-Jun-27 01:34N 41°15' W 072°07'8 7.9
2015-Jun-27 00:33N 41°09' W 072°14'9 9.0
2015-Jun-26 23:34N 41°16' W 072°07'5 5.1
2015-Jun-26 22:34N 41°21' W 072°06'9 9.2
2015-Jun-26 21:33N 41°13' W 072°11'5 4.7
2015-Jun-26 20:33N 41°09' W 072°14'9 9.4
2015-Jun-26 19:34N 41°17' W 072°07'5 4.8
2015-Jun-26 18:33N 41°21' W 072°06'10 9.7
2015-Jun-26 17:34N 41°13' W 072°11'4 4.2
2015-Jun-26 16:33N 41°09' W 072°14'0 0.0
2015-Jun-26 12:33N 41°09' W 072°14'9 8.9
2015-Jun-26 11:33N 41°16' W 072°07'5 5.3
2015-Jun-26 10:33N 41°21' W 072°06'0 0.0
2015-Jun-26 00:29N 41°21' W 072°06'910.0
2015-Jun-25 23:34N 41°13' W 072°11'5 4.6
2015-Jun-25 22:33N 41°09' W 072°14'8 8.0
2015-Jun-25 21:33N 41°16' W 072°08'6 6.0
2015-Jun-25 20:34N 41°21' W 072°06'9 9.5
2015-Jun-25 19:34N 41°13' W 072°11'4 4.5
2015-Jun-25 18:33N 41°09' W 072°14'9 9.1
2015-Jun-25 17:34N 41°16' W 072°07'5 5.0
2015-Jun-25 16:33N 41°21' W 072°06'9 9.3
2015-Jun-25 15:34N 41°13' W 072°11'5 4.6
2015-Jun-25 14:33N 41°09' W 072°14'8 8.2
2015-Jun-25 13:33N 41°16' W 072°08'2 1.1
2015-Jun-25 11:34N 41°14' W 072°09'6 6.0
2015-Jun-25 10:33N 41°09' W 072°14'0 0.0
2015-Jun-25 00:34N 41°09' W 072°14'10 9.6
2015-Jun-24 23:33N 41°17' W 072°06'5 4.6
2015-Jun-24 22:33N 41°21' W 072°06'9 8.5
2015-Jun-24 21:34N 41°13' W 072°09'  
Track history (hours):
 
Tides and Currents Weather Stations Pressure Air Temp Water Temp Dewpoint Dewpoint Depression Visibility Wind Speed Wind Dir Waves Ship Positions

Susan Ann

Owner: CROSS SOUND FERRY SERVICES INC, NEW LONDON, CT. More information available from US FCC via Universal Licensing System and Coast Guard Vessel Documentation Center.

Last reported at 2015-Jul-04 21:33 UTC. Time now 2015-Jul-05 00:11 UTC.
Position N 41°13' W 072°10'.

Length 72 m; draft 4 m.

Type: Passenger vessel. MMSI: 367354350.

Date/timePositionNaut miles runAvg speedWind from/ knotsBaromVisibWave heightAir tempDewpointWater temp
2015-Jul-04 21:33N 41°13' W 072°10'5 5.0
2015-Jul-04 20:32N 41°09' W 072°14'14 0.8
2015-Jul-04 02:30N 41°21' W 072°06'9 9.8
2015-Jul-04 01:33N 41°13' W 072°10'5 4.7
2015-Jul-04 00:34N 41°09' W 072°14'8 8.1
2015-Jul-03 23:33N 41°16' W 072°08'6 5.9
2015-Jul-03 22:33N 41°21' W 072°06'9 9.3
2015-Jul-03 21:33N 41°13' W 072°11'5 4.7
2015-Jul-03 20:34N 41°09' W 072°14'1010.2
2015-Jul-03 19:33N 41°17' W 072°05'4 4.3
2015-Jul-03 18:33N 41°21' W 072°06'1110.6
2015-Jul-03 17:33N 41°12' W 072°12'3 3.3
2015-Jul-03 16:34N 41°09' W 072°14'9 9.5
2015-Jul-03 15:34N 41°17' W 072°06'5 4.8
2015-Jul-03 14:34N 41°21' W 072°06'10 9.7
2015-Jul-03 13:34N 41°12' W 072°11'4 4.2
2015-Jul-03 12:33N 41°09' W 072°14'9 9.0
2015-Jul-03 11:34N 41°16' W 072°07'5 5.2
2015-Jul-03 10:33N 41°21' W 072°06'0 0.0
2015-Jul-03 02:24N 41°21' W 072°06'8 9.0
2015-Jul-03 01:34N 41°14' W 072°09'6 6.3
2015-Jul-03 00:33N 41°09' W 072°14'8 8.5
2015-Jul-02 23:34N 41°16' W 072°08'6 5.5
2015-Jul-02 22:33N 41°21' W 072°06'9 8.9
2015-Jul-02 21:34N 41°13' W 072°10'5 5.1
2015-Jul-02 20:33N 41°09' W 072°14'8 8.5
2015-Jul-02 19:33N 41°16' W 072°07'6 5.7
2015-Jul-02 18:33N 41°21' W 072°06'1010.1
2015-Jul-02 17:33N 41°12' W 072°11'4 3.8
2015-Jul-02 16:33N 41°09' W 072°14'9 9.5
2015-Jul-02 15:33N 41°17' W 072°07'5 4.7
2015-Jul-02 14:33N 41°21' W 072°06'9 9.3
2015-Jul-02 13:33N 41°13' W 072°11'5 4.5
2015-Jul-02 12:33N 41°09' W 072°14'9 8.6
2015-Jul-02 11:34N 41°16' W 072°07'5 5.5
2015-Jul-02 10:34N 41°21' W 072°06'0 0.0
2015-Jul-02 00:25N 41°21' W 072°06'8 9.8
2015-Jul-01 23:33N 41°14' W 072°10'6 5.6
2015-Jul-01 22:34N 41°09' W 072°14'8 8.1
2015-Jul-01 21:33N 41°16' W 072°08'6 6.0
2015-Jul-01 20:34N 41°21' W 072°06'9 8.9
2015-Jul-01 19:34N 41°13' W 072°10'5 5.2
2015-Jul-01 18:33N 41°09' W 072°14'9 9.4
2015-Jul-01 17:33N 41°17' W 072°07'5 4.8
2015-Jul-01 16:33N 41°21' W 072°06'9 8.5
2015-Jul-01 15:34N 41°13' W 072°10'5 5.4
2015-Jul-01 14:33N 41°09' W 072°14'1010.3
2015-Jul-01 13:33N 41°17' W 072°06'4 4.1
2015-Jul-01 12:33N 41°21' W 072°06'9 9.1
2015-Jul-01 11:33N 41°13' W 072°10'5 4.8
2015-Jul-01 10:32N 41°09' W 072°14'0 0.0
2015-Jul-01 00:32N 41°09' W 072°14'9 8.8
2015-Jun-30 23:33N 41°16' W 072°07'6 5.6
2015-Jun-30 22:33N 41°21' W 072°06'9 8.8
2015-Jun-30 21:33N 41°13' W 072°10'5 5.1
2015-Jun-30 20:33N 41°09' W 072°14'1010.2
2015-Jun-30 19:33N 41°17' W 072°06'4 4.2
2015-Jun-30 18:34N 41°21' W 072°06'9 8.7
2015-Jun-30 17:33N 41°13' W 072°10'5 5.4
2015-Jun-30 16:33N 41°09' W 072°14'1310.7
2015-Jun-30 15:21N 41°20' W 072°05'1 1.8
2015-Jun-30 14:33N 41°21' W 072°06'9 9.2
2015-Jun-30 13:33N 41°13' W 072°11'5 4.7
2015-Jun-30 12:33N 41°09' W 072°14'9 8.5
2015-Jun-30 11:34N 41°16' W 072°07'6 5.7
2015-Jun-30 10:34N 41°21' W 072°06'0 0.0
2015-Jun-30 00:26N 41°21' W 072°06'9 9.9
2015-Jun-29 23:33N 41°13' W 072°10'5 5.4
2015-Jun-29 22:33N 41°09' W 072°14'8 7.8
2015-Jun-29 21:33N 41°15' W 072°08'6 6.2
2015-Jun-29 20:33N 41°21' W 072°06'9 8.8
2015-Jun-29 19:33N 41°13' W 072°10'5 5.2
2015-Jun-29 18:34N 41°09' W 072°14'9 8.7
2015-Jun-29 17:33N 41°16' W 072°07'5 5.4
2015-Jun-29 16:33N 41°21' W 072°06'8 7.8
2015-Jun-29 15:33N 41°14' W 072°09'6 6.2
2015-Jun-29 14:33N 41°09' W 072°14'8 8.3
2015-Jun-29 13:33N 41°16' W 072°08'6 5.7
2015-Jun-29 12:33N 41°21' W 072°06'8 8.4
2015-Jun-29 11:34N 41°14' W 072°10'5 5.5
2015-Jun-29 10:33N 41°09' W 072°14'0 0.0
2015-Jun-29 02:09N 41°09' W 072°14'4 7.2
2015-Jun-29 01:33N 41°13' W 072°12'10 9.6
2015-Jun-29 00:33N 41°21' W 072°06'8 8.3
2015-Jun-28 23:33N 41°14' W 072°10'6 5.7
2015-Jun-28 22:33N 41°09' W 072°14'7 7.4
2015-Jun-28 21:34N 41°15' W 072°08'7 6.6
2015-Jun-28 20:33N 41°21' W 072°06'9 9.4
2015-Jun-28 19:33N 41°13' W 072°10'5 4.7
2015-Jun-28 18:33N 41°09' W 072°14'8 7.9
2015-Jun-28 17:33N 41°15' W 072°08'6 6.2
2015-Jun-28 16:33N 41°21' W 072°06'9 8.8
2015-Jun-28 15:34N 41°13' W 072°10'5 5.3
2015-Jun-28 14:33N 41°09' W 072°14'9 9.1
2015-Jun-28 13:34N 41°16' W 072°07'5 5.2
2015-Jun-28 12:33N 41°21' W 072°06'1010.4
2015-Jun-28 11:33N 41°12' W 072°12'3 3.5
2015-Jun-28 10:33N 41°09' W 072°14'1 0.1
2015-Jun-28 01:33N 41°09' W 072°13'1 0.8
2015-Jun-28 00:33N 41°09' W 072°14'9 9.2
2015-Jun-27 23:34N 41°16' W 072°07'5 5.0
2015-Jun-27 22:34N 41°21' W 072°06'9 9.2
2015-Jun-27 21:34N 41°13' W 072°11'5 4.7
2015-Jun-27 20:33N 41°09' W 072°14'1010.0
2015-Jun-27 19:34N 41°17' W 072°06'4 4.3
2015-Jun-27 18:33N 41°21' W 072°06'9 9.5
2015-Jun-27 17:33N 41°13' W 072°11'4 4.4
2015-Jun-27 16:33N 41°09' W 072°14'1010.5
2015-Jun-27 15:33N 41°17' W 072°05'4 4.1
2015-Jun-27 14:33N 41°21' W 072°06'9 9.0
2015-Jun-27 13:33N 41°13' W 072°10'5 4.9
2015-Jun-27 12:33N 41°09' W 072°14'9 8.7
2015-Jun-27 11:34N 41°16' W 072°07'5 5.4
2015-Jun-27 10:33N 41°21' W 072°06'0 0.0
2015-Jun-27 02:15N 41°21' W 072°06'6 9.3
2015-Jun-27 01:34N 41°15' W 072°07'8 7.9
2015-Jun-27 00:33N 41°09' W 072°14'9 9.0
2015-Jun-26 23:34N 41°16' W 072°07'5 5.1
2015-Jun-26 22:34N 41°21' W 072°06'9 9.2
2015-Jun-26 21:33N 41°13' W 072°11'5 4.7
2015-Jun-26 20:33N 41°09' W 072°14'9 9.4
2015-Jun-26 19:34N 41°17' W 072°07'5 4.8
2015-Jun-26 18:33N 41°21' W 072°06'10 9.7
2015-Jun-26 17:34N 41°13' W 072°11'4 4.2
2015-Jun-26 16:33N 41°09' W 072°14'0 0.0
2015-Jun-26 12:33N 41°09' W 072°14'9 8.9
2015-Jun-26 11:33N 41°16' W 072°07'5 5.3
2015-Jun-26 10:33N 41°21' W 072°06'0 0.0
2015-Jun-26 00:29N 41°21' W 072°06'910.0
2015-Jun-25 23:34N 41°13' W 072°11'5 4.6
2015-Jun-25 22:33N 41°09' W 072°14'8 8.0
2015-Jun-25 21:33N 41°16' W 072°08'6 6.0
2015-Jun-25 20:34N 41°21' W 072°06'9 9.5
2015-Jun-25 19:34N 41°13' W 072°11'4 4.5
2015-Jun-25 18:33N 41°09' W 072°14'9 9.1
2015-Jun-25 17:34N 41°16' W 072°07'5 5.0
2015-Jun-25 16:33N 41°21' W 072°06'9 9.3
2015-Jun-25 15:34N 41°13' W 072°11'5 4.6
2015-Jun-25 14:33N 41°09' W 072°14'8 8.2
2015-Jun-25 13:33N 41°16' W 072°08'2 1.1
2015-Jun-25 11:34N 41°14' W 072°09'6 6.0
2015-Jun-25 10:33N 41°09' W 072°14'0 0.0
2015-Jun-25 00:34N 41°09' W 072°14'10 9.6
2015-Jun-24 23:33N 41°17' W 072°06'5 4.6
2015-Jun-24 22:33N 41°21' W 072°06'9 8.5
2015-Jun-24 21:34N 41°13' W 072°09'  

Dump ship's entire track history